<?xml version="1.0" encoding="UTF-8" standalone="no" ?>
<gpx xmlns="http://www.topografix.com/GPX/1/1" xmlns:xsi="http://www.w3.org/2001/XMLSchema-instance" xsi:schemaLocation="http://www.topografix.com/GPX/1/1 http://www.topografix.com/GPX/1/1/gpx.xsd" version="1.1" creator="VisuGPX - https://www.visugpx.com">
  <metadata>
    <name>Getigne_Autour10-22km</name>
    <desc><![CDATA[gnerando idor: 7899428_7903072_7903246_9380870]]></desc>
  </metadata>
  <trk>
    <name><![CDATA[Getigne_SevreEtMoine_10km-7903246]]></name>
    <extensions>
      <line xmlns="http://www.topografix.com/GPX/gpx_style/0/2">
        <color>0000FF</color>
        <width>4</width>
      </line>
    </extensions>
    <trkseg>
      <trkpt lat="47.08526" lon="-1.26254">
        <ele>37</ele>
        <time>2023-11-01T19:03:11Z</time>
      </trkpt>
      <trkpt lat="47.08479" lon="-1.26237">
        <ele>36</ele>
        <time>2023-11-01T19:04:16Z</time>
      </trkpt>
      <trkpt lat="47.08459" lon="-1.26173">
        <ele>36</ele>
        <time>2023-11-01T19:05:20Z</time>
      </trkpt>
      <trkpt lat="47.08434" lon="-1.26082">
        <ele>39</ele>
        <time>2023-11-01T19:06:49Z</time>
      </trkpt>
      <trkpt lat="47.08391" lon="-1.25975">
        <ele>42</ele>
        <time>2023-11-01T19:08:42Z</time>
      </trkpt>
      <trkpt lat="47.0837" lon="-1.25917">
        <ele>43</ele>
        <time>2023-11-01T19:09:41Z</time>
      </trkpt>
      <trkpt lat="47.08351" lon="-1.25855">
        <ele>43</ele>
        <time>2023-11-01T19:10:43Z</time>
      </trkpt>
      <trkpt lat="47.08359" lon="-1.25849">
        <ele>43</ele>
        <time>2023-11-01T19:10:55Z</time>
      </trkpt>
      <trkpt lat="47.08397" lon="-1.25786">
        <ele>43</ele>
        <time>2023-11-01T19:12:12Z</time>
      </trkpt>
      <trkpt lat="47.084" lon="-1.25746">
        <ele>44</ele>
        <time>2023-11-01T19:12:48Z</time>
      </trkpt>
      <trkpt lat="47.08448" lon="-1.25702">
        <ele>44</ele>
        <time>2023-11-01T19:14:04Z</time>
      </trkpt>
      <trkpt lat="47.08498" lon="-1.25778">
        <ele>44</ele>
        <time>2023-11-01T19:15:40Z</time>
      </trkpt>
      <trkpt lat="47.08528" lon="-1.25773">
        <ele>44</ele>
        <time>2023-11-01T19:16:20Z</time>
      </trkpt>
      <trkpt lat="47.08555" lon="-1.2569">
        <ele>44</ele>
        <time>2023-11-01T19:17:44Z</time>
      </trkpt>
      <trkpt lat="47.08584" lon="-1.25542">
        <ele>45</ele>
        <time>2023-11-01T19:20:03Z</time>
      </trkpt>
      <trkpt lat="47.08619" lon="-1.25337">
        <ele>47</ele>
        <time>2023-11-01T19:23:16Z</time>
      </trkpt>
      <trkpt lat="47.08625" lon="-1.25246">
        <ele>46</ele>
        <time>2023-11-01T19:24:39Z</time>
      </trkpt>
      <trkpt lat="47.08627" lon="-1.25142">
        <ele>46</ele>
        <time>2023-11-01T19:26:13Z</time>
      </trkpt>
      <trkpt lat="47.08629" lon="-1.25021">
        <ele>47</ele>
        <time>2023-11-01T19:28:03Z</time>
      </trkpt>
      <trkpt lat="47.0864" lon="-1.24865">
        <ele>47</ele>
        <time>2023-11-01T19:30:26Z</time>
      </trkpt>
      <trkpt lat="47.0865" lon="-1.24716">
        <ele>47</ele>
        <time>2023-11-01T19:32:42Z</time>
      </trkpt>
      <trkpt lat="47.08674" lon="-1.24594">
        <ele>49</ele>
        <time>2023-11-01T19:34:37Z</time>
      </trkpt>
      <trkpt lat="47.0869" lon="-1.24507">
        <ele>50</ele>
        <time>2023-11-01T19:35:59Z</time>
      </trkpt>
      <trkpt lat="47.08624" lon="-1.24395">
        <ele>50</ele>
        <time>2023-11-01T19:38:14Z</time>
      </trkpt>
      <trkpt lat="47.08631" lon="-1.24326">
        <ele>49</ele>
        <time>2023-11-01T19:39:17Z</time>
      </trkpt>
      <trkpt lat="47.08747" lon="-1.24285">
        <ele>50</ele>
        <time>2023-11-01T19:41:56Z</time>
      </trkpt>
      <trkpt lat="47.08769" lon="-1.24203">
        <ele>50</ele>
        <time>2023-11-01T19:43:16Z</time>
      </trkpt>
      <trkpt lat="47.08786" lon="-1.24065">
        <ele>52</ele>
        <time>2023-11-01T19:45:24Z</time>
      </trkpt>
      <trkpt lat="47.08806" lon="-1.23907">
        <ele>54</ele>
        <time>2023-11-01T19:47:50Z</time>
      </trkpt>
      <trkpt lat="47.08825" lon="-1.23816">
        <ele>55</ele>
        <time>2023-11-01T19:49:16Z</time>
      </trkpt>
      <trkpt lat="47.08853" lon="-1.23821">
        <ele>55</ele>
        <time>2023-11-01T19:49:54Z</time>
      </trkpt>
      <trkpt lat="47.08904" lon="-1.23866">
        <ele>52</ele>
        <time>2023-11-01T19:51:13Z</time>
      </trkpt>
      <trkpt lat="47.08971" lon="-1.23921">
        <ele>51</ele>
        <time>2023-11-01T19:52:56Z</time>
      </trkpt>
      <trkpt lat="47.09005" lon="-1.23929">
        <ele>51</ele>
        <time>2023-11-01T19:53:42Z</time>
      </trkpt>
      <trkpt lat="47.09042" lon="-1.23882">
        <ele>53</ele>
        <time>2023-11-01T19:54:47Z</time>
      </trkpt>
      <trkpt lat="47.09093" lon="-1.23816">
        <ele>54</ele>
        <time>2023-11-01T19:56:18Z</time>
      </trkpt>
      <trkpt lat="47.09142" lon="-1.23799">
        <ele>55</ele>
        <time>2023-11-01T19:57:25Z</time>
      </trkpt>
      <trkpt lat="47.09203" lon="-1.23807">
        <ele>54</ele>
        <time>2023-11-01T19:58:46Z</time>
      </trkpt>
      <trkpt lat="47.09283" lon="-1.23809">
        <ele>52</ele>
        <time>2023-11-01T20:00:33Z</time>
      </trkpt>
      <trkpt lat="47.0935" lon="-1.23796">
        <ele>50</ele>
        <time>2023-11-01T20:02:03Z</time>
      </trkpt>
      <trkpt lat="47.09401" lon="-1.23794">
        <ele>49</ele>
        <time>2023-11-01T20:03:11Z</time>
      </trkpt>
      <trkpt lat="47.09381" lon="-1.23869">
        <ele>48</ele>
        <time>2023-11-01T20:04:25Z</time>
      </trkpt>
      <trkpt lat="47.09359" lon="-1.23942">
        <ele>46</ele>
        <time>2023-11-01T20:05:37Z</time>
      </trkpt>
      <trkpt lat="47.09351" lon="-1.24">
        <ele>44</ele>
        <time>2023-11-01T20:06:31Z</time>
      </trkpt>
      <trkpt lat="47.09359" lon="-1.24089">
        <ele>42</ele>
        <time>2023-11-01T20:07:53Z</time>
      </trkpt>
      <trkpt lat="47.09354" lon="-1.24188">
        <ele>42</ele>
        <time>2023-11-01T20:09:23Z</time>
      </trkpt>
      <trkpt lat="47.09338" lon="-1.24241">
        <ele>44</ele>
        <time>2023-11-01T20:10:15Z</time>
      </trkpt>
      <trkpt lat="47.09325" lon="-1.24306">
        <ele>43</ele>
        <time>2023-11-01T20:11:17Z</time>
      </trkpt>
      <trkpt lat="47.09324" lon="-1.244">
        <ele>41</ele>
        <time>2023-11-01T20:12:42Z</time>
      </trkpt>
      <trkpt lat="47.09327" lon="-1.24525">
        <ele>40</ele>
        <time>2023-11-01T20:14:36Z</time>
      </trkpt>
      <trkpt lat="47.09317" lon="-1.24598">
        <ele>40</ele>
        <time>2023-11-01T20:15:44Z</time>
      </trkpt>
      <trkpt lat="47.09305" lon="-1.24645">
        <ele>40</ele>
        <time>2023-11-01T20:16:29Z</time>
      </trkpt>
      <trkpt lat="47.09343" lon="-1.24678">
        <ele>39</ele>
        <time>2023-11-01T20:17:28Z</time>
      </trkpt>
      <trkpt lat="47.09394" lon="-1.24717">
        <ele>37</ele>
        <time>2023-11-01T20:18:45Z</time>
      </trkpt>
      <trkpt lat="47.09429" lon="-1.24736">
        <ele>35</ele>
        <time>2023-11-01T20:19:35Z</time>
      </trkpt>
      <trkpt lat="47.0947" lon="-1.24749">
        <ele>33</ele>
        <time>2023-11-01T20:20:31Z</time>
      </trkpt>
      <trkpt lat="47.09468" lon="-1.2477">
        <ele>33</ele>
        <time>2023-11-01T20:20:50Z</time>
      </trkpt>
      <trkpt lat="47.09453" lon="-1.24816">
        <ele>33</ele>
        <time>2023-11-01T20:21:36Z</time>
      </trkpt>
      <trkpt lat="47.09437" lon="-1.24872">
        <ele>33</ele>
        <time>2023-11-01T20:22:31Z</time>
      </trkpt>
      <trkpt lat="47.09418" lon="-1.24928">
        <ele>34</ele>
        <time>2023-11-01T20:23:28Z</time>
      </trkpt>
      <trkpt lat="47.09408" lon="-1.24975">
        <ele>34</ele>
        <time>2023-11-01T20:24:13Z</time>
      </trkpt>
      <trkpt lat="47.09394" lon="-1.25035">
        <ele>35</ele>
        <time>2023-11-01T20:25:11Z</time>
      </trkpt>
      <trkpt lat="47.09378" lon="-1.25108">
        <ele>37</ele>
        <time>2023-11-01T20:26:20Z</time>
      </trkpt>
      <trkpt lat="47.09371" lon="-1.2517">
        <ele>37</ele>
        <time>2023-11-01T20:27:17Z</time>
      </trkpt>
      <trkpt lat="47.0937" lon="-1.25229">
        <ele>36</ele>
        <time>2023-11-01T20:28:11Z</time>
      </trkpt>
      <trkpt lat="47.09371" lon="-1.25294">
        <ele>34</ele>
        <time>2023-11-01T20:29:10Z</time>
      </trkpt>
      <trkpt lat="47.09372" lon="-1.25314">
        <ele>34</ele>
        <time>2023-11-01T20:29:28Z</time>
      </trkpt>
      <trkpt lat="47.09362" lon="-1.2536">
        <ele>33</ele>
        <time>2023-11-01T20:30:12Z</time>
      </trkpt>
      <trkpt lat="47.09347" lon="-1.25406">
        <ele>33</ele>
        <time>2023-11-01T20:30:58Z</time>
      </trkpt>
      <trkpt lat="47.09337" lon="-1.25471">
        <ele>30</ele>
        <time>2023-11-01T20:31:59Z</time>
      </trkpt>
      <trkpt lat="47.09318" lon="-1.25531">
        <ele>29</ele>
        <time>2023-11-01T20:32:59Z</time>
      </trkpt>
      <trkpt lat="47.09284" lon="-1.25561">
        <ele>28</ele>
        <time>2023-11-01T20:33:52Z</time>
      </trkpt>
      <trkpt lat="47.09248" lon="-1.256">
        <ele>27</ele>
        <time>2023-11-01T20:34:52Z</time>
      </trkpt>
      <trkpt lat="47.09203" lon="-1.25643">
        <ele>26</ele>
        <time>2023-11-01T20:36:03Z</time>
      </trkpt>
      <trkpt lat="47.09152" lon="-1.25718">
        <ele>26</ele>
        <time>2023-11-01T20:37:40Z</time>
      </trkpt>
      <trkpt lat="47.09133" lon="-1.25752">
        <ele>26</ele>
        <time>2023-11-01T20:38:20Z</time>
      </trkpt>
      <trkpt lat="47.09099" lon="-1.25832">
        <ele>26</ele>
        <time>2023-11-01T20:39:45Z</time>
      </trkpt>
      <trkpt lat="47.09072" lon="-1.2588">
        <ele>29</ele>
        <time>2023-11-01T20:40:42Z</time>
      </trkpt>
      <trkpt lat="47.09061" lon="-1.25952">
        <ele>28</ele>
        <time>2023-11-01T20:41:49Z</time>
      </trkpt>
      <trkpt lat="47.09025" lon="-1.26046">
        <ele>29</ele>
        <time>2023-11-01T20:43:27Z</time>
      </trkpt>
      <trkpt lat="47.08985" lon="-1.26149">
        <ele>32</ele>
        <time>2023-11-01T20:45:15Z</time>
      </trkpt>
      <trkpt lat="47.08976" lon="-1.26179">
        <ele>33</ele>
        <time>2023-11-01T20:45:44Z</time>
      </trkpt>
      <trkpt lat="47.08969" lon="-1.26234">
        <ele>33</ele>
        <time>2023-11-01T20:46:35Z</time>
      </trkpt>
      <trkpt lat="47.0895" lon="-1.26309">
        <ele>34</ele>
        <time>2023-11-01T20:47:48Z</time>
      </trkpt>
      <trkpt lat="47.08925" lon="-1.26382">
        <ele>36</ele>
        <time>2023-11-01T20:49:02Z</time>
      </trkpt>
      <trkpt lat="47.08892" lon="-1.2647">
        <ele>36</ele>
        <time>2023-11-01T20:50:34Z</time>
      </trkpt>
      <trkpt lat="47.08861" lon="-1.26521">
        <ele>37</ele>
        <time>2023-11-01T20:51:36Z</time>
      </trkpt>
      <trkpt lat="47.08816" lon="-1.2658">
        <ele>37</ele>
        <time>2023-11-01T20:52:56Z</time>
      </trkpt>
      <trkpt lat="47.08765" lon="-1.26649">
        <ele>37</ele>
        <time>2023-11-01T20:54:29Z</time>
      </trkpt>
      <trkpt lat="47.08721" lon="-1.26726">
        <ele>36</ele>
        <time>2023-11-01T20:56:00Z</time>
      </trkpt>
      <trkpt lat="47.08677" lon="-1.26815">
        <ele>36</ele>
        <time>2023-11-01T20:57:40Z</time>
      </trkpt>
      <trkpt lat="47.08642" lon="-1.26884">
        <ele>34</ele>
        <time>2023-11-01T20:58:58Z</time>
      </trkpt>
      <trkpt lat="47.08638" lon="-1.26989">
        <ele>31</ele>
        <time>2023-11-01T21:00:34Z</time>
      </trkpt>
      <trkpt lat="47.08623" lon="-1.27081">
        <ele>30</ele>
        <time>2023-11-01T21:02:00Z</time>
      </trkpt>
      <trkpt lat="47.08613" lon="-1.2715">
        <ele>32</ele>
        <time>2023-11-01T21:03:04Z</time>
      </trkpt>
      <trkpt lat="47.08608" lon="-1.27163">
        <ele>33</ele>
        <time>2023-11-01T21:03:17Z</time>
      </trkpt>
      <trkpt lat="47.086" lon="-1.27154">
        <ele>33</ele>
        <time>2023-11-01T21:03:31Z</time>
      </trkpt>
      <trkpt lat="47.08595" lon="-1.27163">
        <ele>33</ele>
        <time>2023-11-01T21:03:41Z</time>
      </trkpt>
      <trkpt lat="47.08589" lon="-1.27183">
        <ele>34</ele>
        <time>2023-11-01T21:04:01Z</time>
      </trkpt>
      <trkpt lat="47.0857" lon="-1.27172">
        <ele>33</ele>
        <time>2023-11-01T21:04:28Z</time>
      </trkpt>
      <trkpt lat="47.08551" lon="-1.27155">
        <ele>30</ele>
        <time>2023-11-01T21:04:58Z</time>
      </trkpt>
      <trkpt lat="47.0853" lon="-1.27133">
        <ele>26</ele>
        <time>2023-11-01T21:05:33Z</time>
      </trkpt>
      <trkpt lat="47.08534" lon="-1.27106">
        <ele>24</ele>
        <time>2023-11-01T21:05:58Z</time>
      </trkpt>
      <trkpt lat="47.08513" lon="-1.27097">
        <ele>21</ele>
        <time>2023-11-01T21:06:27Z</time>
      </trkpt>
      <trkpt lat="47.08457" lon="-1.27137">
        <ele>21</ele>
        <time>2023-11-01T21:07:50Z</time>
      </trkpt>
      <trkpt lat="47.08421" lon="-1.2718">
        <ele>21</ele>
        <time>2023-11-01T21:08:52Z</time>
      </trkpt>
      <trkpt lat="47.08388" lon="-1.27236">
        <ele>22</ele>
        <time>2023-11-01T21:09:59Z</time>
      </trkpt>
      <trkpt lat="47.08395" lon="-1.27296">
        <ele>25</ele>
        <time>2023-11-01T21:10:54Z</time>
      </trkpt>
      <trkpt lat="47.08385" lon="-1.27407">
        <ele>24</ele>
        <time>2023-11-01T21:12:36Z</time>
      </trkpt>
      <trkpt lat="47.08361" lon="-1.27457">
        <ele>20</ele>
        <time>2023-11-01T21:13:32Z</time>
      </trkpt>
      <trkpt lat="47.0835" lon="-1.275">
        <ele>19</ele>
        <time>2023-11-01T21:14:14Z</time>
      </trkpt>
      <trkpt lat="47.08351" lon="-1.27533">
        <ele>19</ele>
        <time>2023-11-01T21:14:44Z</time>
      </trkpt>
      <trkpt lat="47.08389" lon="-1.27566">
        <ele>20</ele>
        <time>2023-11-01T21:15:42Z</time>
      </trkpt>
      <trkpt lat="47.08437" lon="-1.27618">
        <ele>22</ele>
        <time>2023-11-01T21:17:02Z</time>
      </trkpt>
      <trkpt lat="47.08494" lon="-1.27669">
        <ele>22</ele>
        <time>2023-11-01T21:18:31Z</time>
      </trkpt>
      <trkpt lat="47.0856" lon="-1.27698">
        <ele>23</ele>
        <time>2023-11-01T21:20:03Z</time>
      </trkpt>
      <trkpt lat="47.08607" lon="-1.27698">
        <ele>22</ele>
        <time>2023-11-01T21:21:06Z</time>
      </trkpt>
      <trkpt lat="47.08643" lon="-1.2771">
        <ele>20</ele>
        <time>2023-11-01T21:21:55Z</time>
      </trkpt>
      <trkpt lat="47.08654" lon="-1.27773">
        <ele>17</ele>
        <time>2023-11-01T21:22:54Z</time>
      </trkpt>
      <trkpt lat="47.08696" lon="-1.27846">
        <ele>16</ele>
        <time>2023-11-01T21:24:21Z</time>
      </trkpt>
      <trkpt lat="47.08727" lon="-1.27885">
        <ele>16</ele>
        <time>2023-11-01T21:25:15Z</time>
      </trkpt>
      <trkpt lat="47.08711" lon="-1.27945">
        <ele>16</ele>
        <time>2023-11-01T21:26:14Z</time>
      </trkpt>
      <trkpt lat="47.08687" lon="-1.28022">
        <ele>21</ele>
        <time>2023-11-01T21:27:31Z</time>
      </trkpt>
      <trkpt lat="47.08636" lon="-1.27981">
        <ele>21</ele>
        <time>2023-11-01T21:28:49Z</time>
      </trkpt>
      <trkpt lat="47.08591" lon="-1.27956">
        <ele>23</ele>
        <time>2023-11-01T21:29:53Z</time>
      </trkpt>
      <trkpt lat="47.08561" lon="-1.27943">
        <ele>26</ele>
        <time>2023-11-01T21:30:34Z</time>
      </trkpt>
      <trkpt lat="47.0854" lon="-1.27942">
        <ele>28</ele>
        <time>2023-11-01T21:31:03Z</time>
      </trkpt>
      <trkpt lat="47.08534" lon="-1.27951">
        <ele>28</ele>
        <time>2023-11-01T21:31:14Z</time>
      </trkpt>
      <trkpt lat="47.08526" lon="-1.27958">
        <ele>29</ele>
        <time>2023-11-01T21:31:26Z</time>
      </trkpt>
      <trkpt lat="47.08504" lon="-1.27999">
        <ele>30</ele>
        <time>2023-11-01T21:32:14Z</time>
      </trkpt>
      <trkpt lat="47.08481" lon="-1.28028">
        <ele>32</ele>
        <time>2023-11-01T21:32:54Z</time>
      </trkpt>
      <trkpt lat="47.08362" lon="-1.27918">
        <ele>38</ele>
        <time>2023-11-01T21:36:02Z</time>
      </trkpt>
      <trkpt lat="47.08233" lon="-1.2782">
        <ele>36</ele>
        <time>2023-11-01T21:39:16Z</time>
      </trkpt>
      <trkpt lat="47.08079" lon="-1.27662">
        <ele>37</ele>
        <time>2023-11-01T21:43:26Z</time>
      </trkpt>
      <trkpt lat="47.08105" lon="-1.27507">
        <ele>28</ele>
        <time>2023-11-01T21:45:52Z</time>
      </trkpt>
      <trkpt lat="47.08063" lon="-1.27414">
        <ele>26</ele>
        <time>2023-11-01T21:47:33Z</time>
      </trkpt>
      <trkpt lat="47.08134" lon="-1.27421">
        <ele>26</ele>
        <time>2023-11-01T21:49:08Z</time>
      </trkpt>
      <trkpt lat="47.08228" lon="-1.27487">
        <ele>20</ele>
        <time>2023-11-01T21:51:27Z</time>
      </trkpt>
      <trkpt lat="47.08286" lon="-1.27444">
        <ele>18</ele>
        <time>2023-11-01T21:52:54Z</time>
      </trkpt>
      <trkpt lat="47.08277" lon="-1.27399">
        <ele>20</ele>
        <time>2023-11-01T21:53:36Z</time>
      </trkpt>
      <trkpt lat="47.08288" lon="-1.27354">
        <ele>21</ele>
        <time>2023-11-01T21:54:20Z</time>
      </trkpt>
      <trkpt lat="47.08281" lon="-1.27287">
        <ele>24</ele>
        <time>2023-11-01T21:55:21Z</time>
      </trkpt>
      <trkpt lat="47.08284" lon="-1.27242">
        <ele>25</ele>
        <time>2023-11-01T21:56:02Z</time>
      </trkpt>
      <trkpt lat="47.08323" lon="-1.27113">
        <ele>24</ele>
        <time>2023-11-01T21:58:11Z</time>
      </trkpt>
      <trkpt lat="47.08348" lon="-1.2709">
        <ele>23</ele>
        <time>2023-11-01T21:58:50Z</time>
      </trkpt>
      <trkpt lat="47.08379" lon="-1.27056">
        <ele>22</ele>
        <time>2023-11-01T21:59:42Z</time>
      </trkpt>
      <trkpt lat="47.08397" lon="-1.27004">
        <ele>22</ele>
        <time>2023-11-01T22:00:35Z</time>
      </trkpt>
      <trkpt lat="47.08433" lon="-1.26931">
        <ele>21</ele>
        <time>2023-11-01T22:01:57Z</time>
      </trkpt>
      <trkpt lat="47.08452" lon="-1.26905">
        <ele>21</ele>
        <time>2023-11-01T22:02:31Z</time>
      </trkpt>
      <trkpt lat="47.08446" lon="-1.26871">
        <ele>23</ele>
        <time>2023-11-01T22:03:03Z</time>
      </trkpt>
      <trkpt lat="47.08422" lon="-1.26812">
        <ele>24</ele>
        <time>2023-11-01T22:04:06Z</time>
      </trkpt>
      <trkpt lat="47.08371" lon="-1.26739">
        <ele>27</ele>
        <time>2023-11-01T22:05:41Z</time>
      </trkpt>
      <trkpt lat="47.08334" lon="-1.26681">
        <ele>24</ele>
        <time>2023-11-01T22:06:53Z</time>
      </trkpt>
      <trkpt lat="47.08294" lon="-1.26617">
        <ele>24</ele>
        <time>2023-11-01T22:08:12Z</time>
      </trkpt>
      <trkpt lat="47.08334" lon="-1.26557">
        <ele>22</ele>
        <time>2023-11-01T22:09:28Z</time>
      </trkpt>
      <trkpt lat="47.08378" lon="-1.26574">
        <ele>23</ele>
        <time>2023-11-01T22:10:29Z</time>
      </trkpt>
      <trkpt lat="47.08432" lon="-1.26617">
        <ele>25</ele>
        <time>2023-11-01T22:11:51Z</time>
      </trkpt>
      <trkpt lat="47.08475" lon="-1.26663">
        <ele>30</ele>
        <time>2023-11-01T22:13:02Z</time>
      </trkpt>
      <trkpt lat="47.08529" lon="-1.26616">
        <ele>35</ele>
        <time>2023-11-01T22:14:25Z</time>
      </trkpt>
      <trkpt lat="47.08576" lon="-1.26576">
        <ele>37</ele>
        <time>2023-11-01T22:15:38Z</time>
      </trkpt>
      <trkpt lat="47.0853" lon="-1.26443">
        <ele>38</ele>
        <time>2023-11-01T22:17:54Z</time>
      </trkpt>
      <trkpt lat="47.08488" lon="-1.26288">
        <ele>37</ele>
        <time>2023-11-01T22:20:25Z</time>
      </trkpt>
      <trkpt lat="47.08498" lon="-1.26262">
        <ele>37</ele>
        <time>2023-11-01T22:20:52Z</time>
      </trkpt>
      <trkpt lat="47.08516" lon="-1.26239">
        <ele>37</ele>
        <time>2023-11-01T22:21:24Z</time>
      </trkpt>
    </trkseg>
  </trk>
</gpx>